createdAt,value
2023-04-15T00:03:11.816Z,9.60
2023-04-15T00:08:15.522Z,9.90
2023-04-15T00:13:18.308Z,8.70
2023-04-15T00:18:21.049Z,10.50
2023-04-15T00:23:23.808Z,9.40
2023-04-15T00:28:27.678Z,8.60
2023-04-15T00:33:30.435Z,11.00
2023-04-15T00:38:33.486Z,10.90
2023-04-15T00:43:36.665Z,9.80
2023-04-15T00:48:39.876Z,10.10
2023-04-15T00:53:43.832Z,10.50
2023-04-15T00:58:46.590Z,12.80
2023-04-15T01:03:51.921Z,8.90
2023-04-15T01:08:55.980Z,12.20
2023-04-15T01:13:59.219Z,9.80
2023-04-15T01:19:02.447Z,8.50
2023-04-15T01:24:11.320Z,10.00
2023-04-15T01:29:14.200Z,10.10
2023-04-15T01:34:17.083Z,8.60
2023-04-15T01:39:19.860Z,8.50
2023-04-15T01:44:22.793Z,10.70
2023-04-15T01:49:25.459Z,11.40
2023-04-15T01:54:28.167Z,9.40
2023-04-15T01:59:31.626Z,9.50
2023-04-15T02:04:34.368Z,9.10
2023-04-15T02:09:37.033Z,10.70
2023-04-15T02:14:39.821Z,9.20
2023-04-15T02:19:43.240Z,10.00
2023-04-15T02:24:47.235Z,10.00
2023-04-15T02:29:51.372Z,9.30
2023-04-15T02:34:54.174Z,9.50
2023-04-15T02:39:57.387Z,7.60
2023-04-15T02:45:00.184Z,12.00
2023-04-15T02:50:09.581Z,8.60
2023-04-15T02:55:12.883Z,10.90
2023-04-15T03:00:16.374Z,8.20
2023-04-15T03:05:19.141Z,8.40
2023-04-15T03:10:22.312Z,13.20
2023-04-15T03:15:25.156Z,9.70
2023-04-15T03:20:28.830Z,10.60
2023-04-15T03:25:31.601Z,9.70
2023-04-15T03:30:34.358Z,8.80
2023-04-15T03:35:37.107Z,5.90
2023-04-15T03:40:43.421Z,8.10
2023-04-15T03:45:46.283Z,5.90
2023-04-15T03:50:49.211Z,6.60
2023-04-15T03:55:52.412Z,8.60
2023-04-15T04:00:55.623Z,5.70
2023-04-15T04:05:58.425Z,6.80
2023-04-15T04:11:01.613Z,11.00
2023-04-15T04:16:05.173Z,7.70
2023-04-15T04:21:08.584Z,7.80
2023-04-15T04:26:11.471Z,6.50
2023-04-15T04:31:14.382Z,10.20
2023-04-15T04:36:17.093Z,6.60
2023-04-15T04:41:19.753Z,8.10
2023-04-15T04:46:24.028Z,8.80
2023-04-15T04:51:26.864Z,7.50
2023-04-15T04:56:29.617Z,7.20
2023-04-15T05:01:32.476Z,8.80
2023-04-15T05:06:36.819Z,7.30
2023-04-15T05:11:39.532Z,10.10
2023-04-15T05:16:42.397Z,11.00
2023-04-15T05:21:45.463Z,7.80
2023-04-15T05:26:48.757Z,8.50
2023-04-15T05:31:52.017Z,8.90
2023-04-15T05:36:54.793Z,8.80
2023-04-15T05:41:57.804Z,10.90
2023-04-15T05:47:01.013Z,9.60
2023-04-15T05:52:04.032Z,10.80
2023-04-15T05:57:07.642Z,9.20
2023-04-15T06:02:10.790Z,9.90
2023-04-15T06:07:13.754Z,8.70
2023-04-15T06:12:17.126Z,10.10
2023-04-15T06:17:19.822Z,8.70
2023-04-15T06:22:23.803Z,7.70
2023-04-15T06:27:26.489Z,7.10
2023-04-15T06:32:29.525Z,12.90
2023-04-15T06:37:32.852Z,7.60
2023-04-15T06:42:36.841Z,10.80
2023-04-15T06:47:39.700Z,8.90
2023-04-15T06:52:42.552Z,7.80
2023-04-15T06:57:45.561Z,7.30
2023-04-15T07:02:48.753Z,11.80
2023-04-15T07:07:51.576Z,7.70
2023-04-15T07:12:54.371Z,8.10
2023-04-15T07:17:57.218Z,7.70
2023-04-15T07:23:00.093Z,11.30
2023-04-15T07:28:03.046Z,9.50
2023-04-15T07:33:05.795Z,7.60
2023-04-15T07:38:08.542Z,8.10
2023-04-15T07:43:11.217Z,9.60
2023-04-15T07:48:14.011Z,8.00
2023-04-15T07:53:16.949Z,8.80
2023-04-15T07:58:19.689Z,10.20
2023-04-15T08:03:24.132Z,9.70
2023-04-15T08:08:27.364Z,9.40
2023-04-15T08:13:30.160Z,8.30
2023-04-15T08:18:33.257Z,9.50
2023-04-15T08:23:36.322Z,10.80
2023-04-15T08:28:40.805Z,7.50
2023-04-15T08:33:43.975Z,7.90
2023-04-15T08:38:47.408Z,9.30
2023-04-15T08:44:09.131Z,10.60
2023-04-15T08:49:14.927Z,11.40
2023-04-15T08:54:19.164Z,6.80
2023-04-15T08:59:22.276Z,10.90
2023-04-15T09:04:25.012Z,9.80
2023-04-15T09:09:28.037Z,8.00
2023-04-15T09:14:32.757Z,9.10
2023-04-15T09:19:35.557Z,8.70
2023-04-15T09:24:41.129Z,11.00
2023-04-15T09:29:43.819Z,9.00
2023-04-15T09:34:48.278Z,9.00
2023-04-15T09:39:53.763Z,8.20
2023-04-15T09:44:56.824Z,9.50
2023-04-15T09:50:01.820Z,8.30
2023-04-15T09:55:06.970Z,6.80
2023-04-15T10:00:11.471Z,11.50
2023-04-15T10:05:18.020Z,9.10
2023-04-15T10:10:21.578Z,9.50
2023-04-15T10:15:26.144Z,9.20
2023-04-15T10:20:30.298Z,6.90
2023-04-15T10:25:33.707Z,8.90
2023-04-15T10:30:37.244Z,9.20
2023-04-15T10:35:40.885Z,8.40
2023-04-15T10:40:45.489Z,7.80
2023-04-15T10:45:48.787Z,6.70
2023-04-15T10:50:58.458Z,7.20
2023-04-15T10:56:01.244Z,7.60
2023-04-15T11:01:04.586Z,9.30
2023-04-15T11:06:07.673Z,9.80
2023-04-15T11:11:10.468Z,10.10
2023-04-15T11:16:13.638Z,7.40
2023-04-15T11:21:16.605Z,7.80
2023-04-15T11:26:19.357Z,9.00
2023-04-15T11:31:24.160Z,8.70
2023-04-15T11:36:28.940Z,7.50
2023-04-15T11:41:31.884Z,6.70
2023-04-15T11:46:34.584Z,8.00
2023-04-15T11:51:38.014Z,8.70
2023-04-15T11:56:40.835Z,9.50
2023-04-15T12:01:46.319Z,8.80
2023-04-15T12:06:49.502Z,8.60
2023-04-15T12:11:53.958Z,9.10
2023-04-15T12:17:05.433Z,8.70
2023-04-15T12:22:17.843Z,8.60
2023-04-15T12:27:21.317Z,7.10
2023-04-15T12:32:24.051Z,5.10
2023-04-15T12:37:26.876Z,5.40
2023-04-15T12:42:29.574Z,5.20
2023-04-15T12:47:32.357Z,5.30
2023-04-15T12:52:35.371Z,5.00
2023-04-15T12:57:38.085Z,6.60
2023-04-15T13:02:40.957Z,6.70
2023-04-15T13:07:43.957Z,6.20
2023-04-15T13:12:48.120Z,5.10
2023-04-15T13:17:51.254Z,5.10
2023-04-15T13:22:54.451Z,4.30
2023-04-15T13:27:57.776Z,15.10
2023-04-15T13:33:00.899Z,4.90
2023-04-15T13:38:03.805Z,7.10
2023-04-15T13:43:06.576Z,6.40
2023-04-15T13:48:09.887Z,5.50
2023-04-15T13:53:13.137Z,4.30
2023-04-15T13:58:16.445Z,5.60
2023-04-15T14:03:19.330Z,6.90
2023-04-15T14:08:22.927Z,5.20
2023-04-15T14:13:25.741Z,4.10
2023-04-15T14:18:30.004Z,7.20
2023-04-15T14:23:32.992Z,6.10
2023-04-15T14:28:35.860Z,4.80
2023-04-15T14:33:38.583Z,5.80
2023-04-15T14:38:41.331Z,6.20
2023-04-15T14:43:44.194Z,6.40
2023-04-15T14:48:47.074Z,4.90
2023-04-15T14:53:49.790Z,6.30
2023-04-15T14:58:54.160Z,4.40
2023-04-15T15:03:56.946Z,3.40
2023-04-15T15:09:01.621Z,4.00
2023-04-15T15:14:04.696Z,3.80
2023-04-15T15:19:07.617Z,5.10
2023-04-15T15:24:10.903Z,3.60
2023-04-15T15:29:13.696Z,4.20
2023-04-15T15:34:17.148Z,3.00
2023-04-15T15:39:19.937Z,3.00
2023-04-15T15:44:22.724Z,6.90
2023-04-15T15:49:26.144Z,2.80
2023-04-15T15:54:29.289Z,4.00
2023-04-15T15:59:33.779Z,4.50
2023-04-15T16:04:37.342Z,5.50
2023-04-15T16:09:41.159Z,5.70
2023-04-15T16:14:43.938Z,7.60
2023-04-15T16:19:58.723Z,4.20
2023-04-15T16:25:03.889Z,3.70
2023-04-15T16:30:07.634Z,3.70
2023-04-15T16:35:11.763Z,5.00
2023-04-15T16:40:15.211Z,4.00
2023-04-15T16:45:18.547Z,4.80
2023-04-15T16:50:21.268Z,5.20
2023-04-15T16:55:24.619Z,5.30
2023-04-15T17:00:27.453Z,5.50
2023-04-15T17:05:33.501Z,4.40
2023-04-15T17:10:36.466Z,6.60
2023-04-15T17:15:40.781Z,4.30
2023-04-15T17:20:43.710Z,3.00
2023-04-15T17:25:46.508Z,3.60
2023-04-15T17:30:49.354Z,4.30
2023-04-15T17:35:52.238Z,5.80
2023-04-15T17:40:55.425Z,4.10
2023-04-15T17:45:58.799Z,5.40
2023-04-15T17:51:01.948Z,3.20
2023-04-15T17:56:04.833Z,3.70
2023-04-15T18:01:07.780Z,3.60
2023-04-15T18:06:11.906Z,5.00
2023-04-15T18:11:14.669Z,5.80
2023-04-15T18:16:17.629Z,4.10
2023-04-15T18:21:20.820Z,4.40
2023-04-15T18:26:23.649Z,2.90
2023-04-15T18:31:26.444Z,3.50
2023-04-15T18:36:29.761Z,2.50
2023-04-15T18:41:32.541Z,2.80
2023-04-15T18:46:35.539Z,3.40
2023-04-15T18:51:38.214Z,3.70
2023-04-15T18:56:41.640Z,1.90
2023-04-15T19:01:44.341Z,4.90
2023-04-15T19:06:47.892Z,4.80
2023-04-15T19:11:50.785Z,5.20
2023-04-15T19:16:53.558Z,3.90
2023-04-15T19:21:56.357Z,4.60
2023-04-15T19:26:59.190Z,2.50
2023-04-15T19:32:02.201Z,5.30
2023-04-15T19:37:04.964Z,9.50
2023-04-15T19:42:07.790Z,5.20
2023-04-15T19:47:11.515Z,4.50
2023-04-15T19:52:14.328Z,4.30
2023-04-15T19:57:17.120Z,3.70
2023-04-15T20:02:20.014Z,4.00
2023-04-15T20:07:22.869Z,4.20
2023-04-15T20:12:50.271Z,5.90
2023-04-15T20:17:49.790Z,4.40
2023-04-15T20:22:53.166Z,5.60
2023-04-15T20:27:57.554Z,8.10
2023-04-15T20:33:01.368Z,7.40
2023-04-15T20:38:04.678Z,6.50
2023-04-15T20:43:07.917Z,5.30
2023-04-15T20:48:11.003Z,4.00
2023-04-15T20:53:13.751Z,4.40
2023-04-15T20:58:16.538Z,3.60
2023-04-15T21:03:19.552Z,4.30
2023-04-15T21:08:29.171Z,4.50
2023-04-15T21:13:32.025Z,4.30
2023-04-15T21:18:34.861Z,5.00
2023-04-15T21:23:37.620Z,5.10
2023-04-15T21:28:40.746Z,3.30
2023-04-15T21:33:43.471Z,4.40
2023-04-15T21:38:46.233Z,4.60
2023-04-15T21:43:49.060Z,5.40
2023-04-15T21:48:53.346Z,3.80
2023-04-15T21:53:56.177Z,2.60
2023-04-15T21:58:59.024Z,4.30
2023-04-15T22:04:02.028Z,3.90
2023-04-15T22:09:04.911Z,4.40
2023-04-15T22:14:07.788Z,2.50
2023-04-15T22:19:10.810Z,3.70
2023-04-15T22:24:32.237Z,4.60
2023-04-15T22:29:36.502Z,3.20
2023-04-15T22:34:39.370Z,4.00
2023-04-15T22:39:42.169Z,2.90
2023-04-15T22:44:45.583Z,4.30
2023-04-15T22:49:48.289Z,5.40
2023-04-15T22:54:51.191Z,3.90
2023-04-15T22:59:54.298Z,3.90
2023-04-15T23:04:57.846Z,3.60
2023-04-15T23:10:01.322Z,4.70
2023-04-15T23:15:04.523Z,3.50
2023-04-15T23:20:08.165Z,4.00
2023-04-15T23:25:11.570Z,3.80
2023-04-15T23:30:15.034Z,4.90
2023-04-15T23:35:17.800Z,4.30
2023-04-15T23:40:20.816Z,4.20
2023-04-15T23:45:23.673Z,5.30
2023-04-15T23:50:28.480Z,3.20
2023-04-15T23:55:31.466Z,3.00
